sensor_id;sensor_type;location;lat;lon;timestamp;P1;durP1;ratioP1;P2;durP2;ratioP2
39524;SDS011;25203;50.754;6.978;2023-03-01T00:01:26;15.25;;;10.35;;
39524;SDS011;25203;50.754;6.978;2023-03-01T00:03:28;14.80;;;10.60;;
39524;SDS011;25203;50.754;6.978;2023-03-01T00:05:29;16.20;;;10.05;;
39524;SDS011;25203;50.754;6.978;2023-03-01T00:07:29;16.55;;;10.98;;
39524;SDS011;25203;50.754;6.978;2023-03-01T00:09:30;15.93;;;10.45;;
39524;SDS011;25203;50.754;6.978;2023-03-01T00:11:31;15.23;;;10.02;;
39524;SDS011;25203;50.754;6.978;2023-03-01T00:13:33;18.45;;;11.05;;
39524;SDS011;25203;50.754;6.978;2023-03-01T00:15:37;14.70;;;9.77;;
39524;SDS011;25203;50.754;6.978;2023-03-01T00:17:39;15.85;;;10.05;;
39524;SDS011;25203;50.754;6.978;2023-03-01T00:19:40;15.32;;;10.70;;
39524;SDS011;25203;50.754;6.978;2023-03-01T00:21:41;15.48;;;11.00;;
39524;SDS011;25203;50.754;6.978;2023-03-01T00:23:41;13.57;;;10.05;;
39524;SDS011;25203;50.754;6.978;2023-03-01T00:25:42;13.52;;;10.00;;
39524;SDS011;25203;50.754;6.978;2023-03-01T00:27:43;14.07;;;10.45;;
39524;SDS011;25203;50.754;6.978;2023-03-01T00:29:44;14.45;;;9.38;;
39524;SDS011;25203;50.754;6.978;2023-03-01T00:31:44;11.82;;;9.45;;
39524;SDS011;25203;50.754;6.978;2023-03-01T00:33:45;20.73;;;11.68;;
39524;SDS011;25203;50.754;6.978;2023-03-01T00:35:46;17.98;;;11.32;;
39524;SDS011;25203;50.754;6.978;2023-03-01T00:37:46;17.08;;;11.43;;
39524;SDS011;25203;50.754;6.978;2023-03-01T00:39:47;13.50;;;10.38;;
39524;SDS011;25203;50.754;6.978;2023-03-01T00:41:48;17.08;;;10.18;;
39524;SDS011;25203;50.754;6.978;2023-03-01T00:43:49;15.18;;;11.02;;
39524;SDS011;25203;50.754;6.978;2023-03-01T00:45:50;17.30;;;11.52;;
39524;SDS011;25203;50.754;6.978;2023-03-01T00:47:51;17.55;;;11.45;;
39524;SDS011;25203;50.754;6.978;2023-03-01T00:49:51;15.70;;;11.25;;
39524;SDS011;25203;50.754;6.978;2023-03-01T00:51:52;17.98;;;12.65;;
39524;SDS011;25203;50.754;6.978;2023-03-01T00:53:54;20.60;;;12.00;;
39524;SDS011;25203;50.754;6.978;2023-03-01T00:55:56;15.57;;;11.20;;
39524;SDS011;25203;50.754;6.978;2023-03-01T00:57:58;21.23;;;12.27;;
39524;SDS011;25203;50.754;6.978;2023-03-01T00:59:58;15.85;;;10.57;;
39524;SDS011;25203;50.754;6.978;2023-03-01T01:01:59;17.23;;;11.75;;
39524;SDS011;25203;50.754;6.978;2023-03-01T01:04:01;17.15;;;11.65;;
39524;SDS011;25203;50.754;6.978;2023-03-01T01:06:03;21.63;;;13.60;;
39524;SDS011;25203;50.754;6.978;2023-03-01T01:08:09;22.15;;;12.82;;
39524;SDS011;25203;50.754;6.978;2023-03-01T01:10:09;20.83;;;13.77;;
39524;SDS011;25203;50.754;6.978;2023-03-01T01:12:16;18.40;;;12.73;;
39524;SDS011;25203;50.754;6.978;2023-03-01T01:14:17;14.98;;;11.20;;
39524;SDS011;25203;50.754;6.978;2023-03-01T01:16:19;19.58;;;12.38;;
39524;SDS011;25203;50.754;6.978;2023-03-01T01:18:21;18.90;;;11.95;;
39524;SDS011;25203;50.754;6.978;2023-03-01T01:20:22;19.60;;;12.77;;
39524;SDS011;25203;50.754;6.978;2023-03-01T01:22:22;18.58;;;12.13;;
39524;SDS011;25203;50.754;6.978;2023-03-01T01:24:23;19.08;;;13.45;;
39524;SDS011;25203;50.754;6.978;2023-03-01T01:26:25;19.23;;;13.70;;
39524;SDS011;25203;50.754;6.978;2023-03-01T01:28:29;18.60;;;12.68;;
39524;SDS011;25203;50.754;6.978;2023-03-01T01:30:30;21.55;;;13.40;;
39524;SDS011;25203;50.754;6.978;2023-03-01T01:32:31;17.13;;;12.00;;
39524;SDS011;25203;50.754;6.978;2023-03-01T01:34:31;20.17;;;12.70;;
39524;SDS011;25203;50.754;6.978;2023-03-01T01:36:32;19.65;;;12.38;;
39524;SDS011;25203;50.754;6.978;2023-03-01T01:38:34;19.08;;;11.57;;
39524;SDS011;25203;50.754;6.978;2023-03-01T01:40:42;19.67;;;12.18;;
39524;SDS011;25203;50.754;6.978;2023-03-01T01:42:45;22.25;;;12.90;;
39524;SDS011;25203;50.754;6.978;2023-03-01T01:44:46;18.25;;;12.27;;
39524;SDS011;25203;50.754;6.978;2023-03-01T01:46:54;15.85;;;11.82;;
39524;SDS011;25203;50.754;6.978;2023-03-01T01:49:01;16.63;;;11.07;;
39524;SDS011;25203;50.754;6.978;2023-03-01T01:51:05;18.27;;;12.45;;
39524;SDS011;25203;50.754;6.978;2023-03-01T01:53:14;19.20;;;12.70;;
39524;SDS011;25203;50.754;6.978;2023-03-01T01:55:19;16.20;;;11.73;;
39524;SDS011;25203;50.754;6.978;2023-03-01T01:57:25;19.27;;;12.43;;
39524;SDS011;25203;50.754;6.978;2023-03-01T01:59:47;17.00;;;11.82;;
39524;SDS011;25203;50.754;6.978;2023-03-01T02:01:52;17.55;;;12.02;;
39524;SDS011;25203;50.754;6.978;2023-03-01T02:03:53;16.58;;;11.88;;
39524;SDS011;25203;50.754;6.978;2023-03-01T02:05:56;16.30;;;11.85;;
39524;SDS011;25203;50.754;6.978;2023-03-01T02:08:01;17.45;;;11.52;;
39524;SDS011;25203;50.754;6.978;2023-03-01T02:10:02;18.38;;;11.48;;
39524;SDS011;25203;50.754;6.978;2023-03-01T02:12:03;19.17;;;11.93;;
39524;SDS011;25203;50.754;6.978;2023-03-01T02:14:04;22.90;;;13.55;;
39524;SDS011;25203;50.754;6.978;2023-03-01T02:16:09;18.80;;;12.82;;
39524;SDS011;25203;50.754;6.978;2023-03-01T02:18:13;19.02;;;11.70;;
39524;SDS011;25203;50.754;6.978;2023-03-01T02:22:39;20.42;;;12.73;;
39524;SDS011;25203;50.754;6.978;2023-03-01T02:25:03;20.20;;;12.55;;
39524;SDS011;25203;50.754;6.978;2023-03-01T02:27:19;19.73;;;12.75;;
39524;SDS011;25203;50.754;6.978;2023-03-01T02:29:24;22.35;;;11.15;;
39524;SDS011;25203;50.754;6.978;2023-03-01T02:31:26;19.90;;;12.68;;
39524;SDS011;25203;50.754;6.978;2023-03-01T02:33:42;15.98;;;11.45;;
39524;SDS011;25203;50.754;6.978;2023-03-01T02:35:45;19.27;;;12.00;;
39524;SDS011;25203;50.754;6.978;2023-03-01T02:37:46;18.13;;;11.43;;
39524;SDS011;25203;50.754;6.978;2023-03-01T02:39:48;21.75;;;12.45;;
39524;SDS011;25203;50.754;6.978;2023-03-01T02:42:13;17.20;;;12.32;;
39524;SDS011;25203;50.754;6.978;2023-03-01T02:44:16;20.92;;;13.25;;
39524;SDS011;25203;50.754;6.978;2023-03-01T02:46:19;20.85;;;12.90;;
39524;SDS011;25203;50.754;6.978;2023-03-01T02:48:22;16.50;;;12.05;;
39524;SDS011;25203;50.754;6.978;2023-03-01T02:54:56;19.35;;;12.52;;
39524;SDS011;25203;50.754;6.978;2023-03-01T02:57:00;22.13;;;12.68;;
39524;SDS011;25203;50.754;6.978;2023-03-01T02:59:01;20.42;;;12.80;;
39524;SDS011;25203;50.754;6.978;2023-03-01T03:01:03;19.15;;;11.82;;
39524;SDS011;25203;50.754;6.978;2023-03-01T03:03:03;19.98;;;12.20;;
39524;SDS011;25203;50.754;6.978;2023-03-01T03:05:06;20.05;;;12.02;;
39524;SDS011;25203;50.754;6.978;2023-03-01T03:07:18;18.20;;;11.73;;
39524;SDS011;25203;50.754;6.978;2023-03-01T03:09:18;16.73;;;11.30;;
39524;SDS011;25203;50.754;6.978;2023-03-01T03:11:19;17.08;;;11.95;;
39524;SDS011;25203;50.754;6.978;2023-03-01T03:13:20;19.40;;;12.10;;
39524;SDS011;25203;50.754;6.978;2023-03-01T03:15:22;21.77;;;11.68;;
39524;SDS011;25203;50.754;6.978;2023-03-01T03:17:23;16.00;;;11.57;;
39524;SDS011;25203;50.754;6.978;2023-03-01T03:19:23;15.63;;;11.48;;
39524;SDS011;25203;50.754;6.978;2023-03-01T03:21:24;18.98;;;12.48;;
39524;SDS011;25203;50.754;6.978;2023-03-01T03:23:25;18.55;;;11.63;;
39524;SDS011;25203;50.754;6.978;2023-03-01T03:25:26;20.42;;;13.02;;
39524;SDS011;25203;50.754;6.978;2023-03-01T03:27:28;15.98;;;11.00;;
39524;SDS011;25203;50.754;6.978;2023-03-01T03:29:29;17.95;;;12.40;;
39524;SDS011;25203;50.754;6.978;2023-03-01T03:31:29;20.15;;;13.15;;
39524;SDS011;25203;50.754;6.978;2023-03-01T03:33:30;18.88;;;11.95;;
39524;SDS011;25203;50.754;6.978;2023-03-01T03:35:32;19.88;;;12.57;;
39524;SDS011;25203;50.754;6.978;2023-03-01T03:37:44;19.38;;;10.93;;
39524;SDS011;25203;50.754;6.978;2023-03-01T03:40:03;19.05;;;11.93;;
39524;SDS011;25203;50.754;6.978;2023-03-01T03:42:04;17.02;;;11.90;;
39524;SDS011;25203;50.754;6.978;2023-03-01T03:44:04;18.83;;;12.10;;
39524;SDS011;25203;50.754;6.978;2023-03-01T03:46:05;16.25;;;11.68;;
39524;SDS011;25203;50.754;6.978;2023-03-01T03:48:06;18.08;;;11.90;;
39524;SDS011;25203;50.754;6.978;2023-03-01T03:50:10;20.17;;;12.00;;
39524;SDS011;25203;50.754;6.978;2023-03-01T03:52:11;19.45;;;11.68;;
39524;SDS011;25203;50.754;6.978;2023-03-01T03:54:13;17.40;;;12.20;;
39524;SDS011;25203;50.754;6.978;2023-03-01T03:56:14;18.15;;;11.43;;
39524;SDS011;25203;50.754;6.978;2023-03-01T03:58:14;16.88;;;11.15;;
39524;SDS011;25203;50.754;6.978;2023-03-01T04:00:19;20.88;;;12.63;;
39524;SDS011;25203;50.754;6.978;2023-03-01T04:02:21;14.93;;;10.50;;
39524;SDS011;25203;50.754;6.978;2023-03-01T04:04:22;23.63;;;12.32;;
39524;SDS011;25203;50.754;6.978;2023-03-01T04:06:22;18.83;;;12.65;;
39524;SDS011;25203;50.754;6.978;2023-03-01T04:08:23;18.20;;;12.30;;
39524;SDS011;25203;50.754;6.978;2023-03-01T04:10:24;18.67;;;12.00;;
39524;SDS011;25203;50.754;6.978;2023-03-01T04:12:25;21.15;;;14.05;;
39524;SDS011;25203;50.754;6.978;2023-03-01T04:14:25;20.17;;;12.15;;
39524;SDS011;25203;50.754;6.978;2023-03-01T04:16:26;19.98;;;12.32;;
39524;SDS011;25203;50.754;6.978;2023-03-01T04:18:26;21.20;;;12.63;;
39524;SDS011;25203;50.754;6.978;2023-03-01T04:20:28;18.25;;;11.77;;
39524;SDS011;25203;50.754;6.978;2023-03-01T04:22:30;18.92;;;13.13;;
39524;SDS011;25203;50.754;6.978;2023-03-01T04:24:31;22.65;;;12.07;;
39524;SDS011;25203;50.754;6.978;2023-03-01T04:26:32;17.35;;;11.32;;
39524;SDS011;25203;50.754;6.978;2023-03-01T04:28:34;18.08;;;11.90;;
39524;SDS011;25203;50.754;6.978;2023-03-01T04:30:40;21.77;;;13.13;;
39524;SDS011;25203;50.754;6.978;2023-03-01T04:32:41;19.05;;;12.77;;
39524;SDS011;25203;50.754;6.978;2023-03-01T04:34:41;17.83;;;11.38;;
39524;SDS011;25203;50.754;6.978;2023-03-01T04:36:42;20.67;;;12.65;;
39524;SDS011;25203;50.754;6.978;2023-03-01T04:38:43;20.25;;;11.80;;
39524;SDS011;25203;50.754;6.978;2023-03-01T04:40:47;23.95;;;13.35;;
39524;SDS011;25203;50.754;6.978;2023-03-01T04:42:48;21.77;;;12.82;;
39524;SDS011;25203;50.754;6.978;2023-03-01T04:44:49;18.75;;;12.07;;
39524;SDS011;25203;50.754;6.978;2023-03-01T04:46:51;17.67;;;12.55;;
39524;SDS011;25203;50.754;6.978;2023-03-01T04:48:51;19.02;;;12.13;;
39524;SDS011;25203;50.754;6.978;2023-03-01T04:50:52;19.83;;;13.00;;
39524;SDS011;25203;50.754;6.978;2023-03-01T04:52:53;19.85;;;13.52;;
39524;SDS011;25203;50.754;6.978;2023-03-01T04:54:53;19.58;;;13.45;;
39524;SDS011;25203;50.754;6.978;2023-03-01T04:56:54;17.75;;;13.15;;
39524;SDS011;25203;50.754;6.978;2023-03-01T04:58:55;17.23;;;11.07;;
39524;SDS011;25203;50.754;6.978;2023-03-01T05:00:55;19.08;;;12.77;;
39524;SDS011;25203;50.754;6.978;2023-03-01T05:02:57;18.65;;;12.63;;
39524;SDS011;25203;50.754;6.978;2023-03-01T05:04:59;19.75;;;12.93;;
39524;SDS011;25203;50.754;6.978;2023-03-01T05:07:00;19.65;;;12.20;;
39524;SDS011;25203;50.754;6.978;2023-03-01T05:09:01;20.05;;;13.20;;
39524;SDS011;25203;50.754;6.978;2023-03-01T05:11:01;18.60;;;12.52;;
39524;SDS011;25203;50.754;6.978;2023-03-01T05:13:02;18.33;;;12.20;;
39524;SDS011;25203;50.754;6.978;2023-03-01T05:15:04;21.52;;;13.02;;
39524;SDS011;25203;50.754;6.978;2023-03-01T05:17:07;20.45;;;11.20;;
39524;SDS011;25203;50.754;6.978;2023-03-01T05:19:07;22.50;;;13.20;;
39524;SDS011;25203;50.754;6.978;2023-03-01T05:21:22;22.17;;;14.13;;
39524;SDS011;25203;50.754;6.978;2023-03-01T05:23:23;24.75;;;13.90;;
39524;SDS011;25203;50.754;6.978;2023-03-01T05:25:24;22.85;;;13.75;;
39524;SDS011;25203;50.754;6.978;2023-03-01T05:27:25;21.10;;;13.52;;
39524;SDS011;25203;50.754;6.978;2023-03-01T05:29:26;22.75;;;13.85;;
39524;SDS011;25203;50.754;6.978;2023-03-01T05:31:27;18.88;;;11.90;;
39524;SDS011;25203;50.754;6.978;2023-03-01T05:33:28;22.20;;;13.25;;
39524;SDS011;25203;50.754;6.978;2023-03-01T05:35:28;18.98;;;12.65;;
39524;SDS011;25203;50.754;6.978;2023-03-01T05:37:29;23.55;;;13.88;;
39524;SDS011;25203;50.754;6.978;2023-03-01T05:39:30;25.90;;;14.77;;
39524;SDS011;25203;50.754;6.978;2023-03-01T05:41:31;21.85;;;13.38;;
39524;SDS011;25203;50.754;6.978;2023-03-01T05:43:32;22.90;;;13.43;;
39524;SDS011;25203;50.754;6.978;2023-03-01T05:45:36;21.95;;;13.77;;
39524;SDS011;25203;50.754;6.978;2023-03-01T05:47:38;19.05;;;12.65;;
39524;SDS011;25203;50.754;6.978;2023-03-01T05:49:43;22.35;;;14.20;;
39524;SDS011;25203;50.754;6.978;2023-03-01T05:51:47;18.92;;;13.05;;
39524;SDS011;25203;50.754;6.978;2023-03-01T05:53:49;30.38;;;13.52;;
39524;SDS011;25203;50.754;6.978;2023-03-01T05:55:49;20.92;;;13.57;;
39524;SDS011;25203;50.754;6.978;2023-03-01T05:57:51;22.92;;;13.32;;
39524;SDS011;25203;50.754;6.978;2023-03-01T05:59:51;19.92;;;12.88;;
39524;SDS011;25203;50.754;6.978;2023-03-01T06:01:52;22.35;;;14.43;;
39524;SDS011;25203;50.754;6.978;2023-03-01T06:03:53;20.83;;;13.05;;
39524;SDS011;25203;50.754;6.978;2023-03-01T06:05:57;21.98;;;13.48;;
39524;SDS011;25203;50.754;6.978;2023-03-01T06:07:58;24.17;;;15.05;;
39524;SDS011;25203;50.754;6.978;2023-03-01T06:10:00;20.50;;;13.57;;
39524;SDS011;25203;50.754;6.978;2023-03-01T06:12:01;23.05;;;14.23;;
39524;SDS011;25203;50.754;6.978;2023-03-01T06:14:02;21.50;;;14.05;;
39524;SDS011;25203;50.754;6.978;2023-03-01T06:16:04;26.25;;;14.73;;
39524;SDS011;25203;50.754;6.978;2023-03-01T06:18:06;24.52;;;15.90;;
39524;SDS011;25203;50.754;6.978;2023-03-01T06:22:11;22.88;;;13.95;;
39524;SDS011;25203;50.754;6.978;2023-03-01T06:24:11;24.15;;;14.15;;
39524;SDS011;25203;50.754;6.978;2023-03-01T06:26:12;24.80;;;14.35;;
39524;SDS011;25203;50.754;6.978;2023-03-01T06:28:13;21.45;;;13.73;;
39524;SDS011;25203;50.754;6.978;2023-03-01T06:30:14;22.83;;;14.55;;
39524;SDS011;25203;50.754;6.978;2023-03-01T06:32:16;23.58;;;14.25;;
39524;SDS011;25203;50.754;6.978;2023-03-01T06:34:17;25.25;;;13.32;;
39524;SDS011;25203;50.754;6.978;2023-03-01T06:36:18;21.65;;;13.07;;
39524;SDS011;25203;50.754;6.978;2023-03-01T06:38:21;22.50;;;14.77;;
39524;SDS011;25203;50.754;6.978;2023-03-01T06:40:21;20.83;;;13.80;;
39524;SDS011;25203;50.754;6.978;2023-03-01T06:42:22;23.92;;;14.70;;
39524;SDS011;25203;50.754;6.978;2023-03-01T06:44:23;21.98;;;14.23;;
39524;SDS011;25203;50.754;6.978;2023-03-01T06:46:23;22.77;;;13.88;;
39524;SDS011;25203;50.754;6.978;2023-03-01T06:48:24;19.95;;;13.68;;
39524;SDS011;25203;50.754;6.978;2023-03-01T06:50:25;24.00;;;14.20;;
39524;SDS011;25203;50.754;6.978;2023-03-01T06:52:25;22.48;;;13.88;;
39524;SDS011;25203;50.754;6.978;2023-03-01T06:54:26;24.58;;;14.32;;
39524;SDS011;25203;50.754;6.978;2023-03-01T06:56:27;24.42;;;14.02;;
39524;SDS011;25203;50.754;6.978;2023-03-01T06:58:27;22.80;;;14.25;;
39524;SDS011;25203;50.754;6.978;2023-03-01T07:00:28;23.50;;;14.85;;
39524;SDS011;25203;50.754;6.978;2023-03-01T07:02:29;31.27;;;16.65;;
39524;SDS011;25203;50.754;6.978;2023-03-01T07:04:29;24.67;;;14.80;;
39524;SDS011;25203;50.754;6.978;2023-03-01T07:06:30;25.10;;;14.63;;
39524;SDS011;25203;50.754;6.978;2023-03-01T07:08:31;25.13;;;14.77;;
39524;SDS011;25203;50.754;6.978;2023-03-01T07:10:31;21.33;;;13.27;;
39524;SDS011;25203;50.754;6.978;2023-03-01T07:12:32;30.58;;;12.68;;
39524;SDS011;25203;50.754;6.978;2023-03-01T07:14:33;26.33;;;14.60;;
39524;SDS011;25203;50.754;6.978;2023-03-01T07:16:33;22.25;;;12.95;;
39524;SDS011;25203;50.754;6.978;2023-03-01T07:18:34;21.08;;;13.90;;
39524;SDS011;25203;50.754;6.978;2023-03-01T07:20:35;21.00;;;14.00;;
39524;SDS011;25203;50.754;6.978;2023-03-01T07:22:35;23.58;;;14.68;;
39524;SDS011;25203;50.754;6.978;2023-03-01T07:24:36;20.67;;;13.65;;
39524;SDS011;25203;50.754;6.978;2023-03-01T07:26:36;22.08;;;14.68;;
39524;SDS011;25203;50.754;6.978;2023-03-01T07:28:37;25.35;;;14.73;;
39524;SDS011;25203;50.754;6.978;2023-03-01T07:30:39;24.90;;;15.52;;
39524;SDS011;25203;50.754;6.978;2023-03-01T07:32:40;25.25;;;17.25;;
39524;SDS011;25203;50.754;6.978;2023-03-01T07:34:40;26.50;;;16.60;;
39524;SDS011;25203;50.754;6.978;2023-03-01T07:36:41;19.67;;;13.60;;
39524;SDS011;25203;50.754;6.978;2023-03-01T07:38:43;13.13;;;9.70;;
39524;SDS011;25203;50.754;6.978;2023-03-01T07:40:43;11.40;;;8.40;;
39524;SDS011;25203;50.754;6.978;2023-03-01T07:42:44;10.00;;;8.23;;
39524;SDS011;25203;50.754;6.978;2023-03-01T07:44:45;10.63;;;7.90;;
39524;SDS011;25203;50.754;6.978;2023-03-01T07:46:45;9.05;;;8.05;;
39524;SDS011;25203;50.754;6.978;2023-03-01T07:48:46;10.13;;;7.40;;
39524;SDS011;25203;50.754;6.978;2023-03-01T07:50:47;10.25;;;7.68;;
39524;SDS011;25203;50.754;6.978;2023-03-01T07:52:48;9.30;;;7.35;;
39524;SDS011;25203;50.754;6.978;2023-03-01T07:54:49;9.70;;;6.88;;
39524;SDS011;25203;50.754;6.978;2023-03-01T07:56:50;10.20;;;5.80;;
39524;SDS011;25203;50.754;6.978;2023-03-01T07:58:50;10.85;;;7.13;;
39524;SDS011;25203;50.754;6.978;2023-03-01T08:00:51;9.45;;;7.80;;
39524;SDS011;25203;50.754;6.978;2023-03-01T08:02:52;9.60;;;7.13;;
39524;SDS011;25203;50.754;6.978;2023-03-01T08:04:52;12.05;;;8.00;;
39524;SDS011;25203;50.754;6.978;2023-03-01T08:06:54;10.20;;;8.20;;
39524;SDS011;25203;50.754;6.978;2023-03-01T08:08:55;9.20;;;8.23;;
39524;SDS011;25203;50.754;6.978;2023-03-01T08:10:56;10.88;;;8.10;;
39524;SDS011;25203;50.754;6.978;2023-03-01T08:12:57;10.00;;;8.48;;
39524;SDS011;25203;50.754;6.978;2023-03-01T08:14:58;10.05;;;8.13;;
39524;SDS011;25203;50.754;6.978;2023-03-01T08:16:58;11.45;;;8.82;;
39524;SDS011;25203;50.754;6.978;2023-03-01T08:19:03;12.25;;;8.85;;
39524;SDS011;25203;50.754;6.978;2023-03-01T08:21:09;9.63;;;8.60;;
39524;SDS011;25203;50.754;6.978;2023-03-01T08:23:11;13.93;;;9.15;;
39524;SDS011;25203;50.754;6.978;2023-03-01T08:25:12;12.75;;;9.68;;
39524;SDS011;25203;50.754;6.978;2023-03-01T08:27:14;11.68;;;9.75;;
39524;SDS011;25203;50.754;6.978;2023-03-01T08:29:15;12.45;;;9.90;;
39524;SDS011;25203;50.754;6.978;2023-03-01T08:31:35;13.13;;;9.32;;
39524;SDS011;25203;50.754;6.978;2023-03-01T08:33:37;12.63;;;9.95;;
39524;SDS011;25203;50.754;6.978;2023-03-01T08:35:37;12.30;;;10.07;;
39524;SDS011;25203;50.754;6.978;2023-03-01T08:37:38;10.60;;;8.73;;
39524;SDS011;25203;50.754;6.978;2023-03-01T08:39:39;12.85;;;9.77;;
39524;SDS011;25203;50.754;6.978;2023-03-01T08:41:39;12.27;;;9.98;;
39524;SDS011;25203;50.754;6.978;2023-03-01T08:43:40;11.43;;;9.38;;
39524;SDS011;25203;50.754;6.978;2023-03-01T08:45:41;14.70;;;10.32;;
39524;SDS011;25203;50.754;6.978;2023-03-01T08:47:42;12.07;;;9.93;;
39524;SDS011;25203;50.754;6.978;2023-03-01T08:49:42;12.15;;;9.43;;
39524;SDS011;25203;50.754;6.978;2023-03-01T08:51:43;11.82;;;9.52;;
39524;SDS011;25203;50.754;6.978;2023-03-01T08:53:45;15.70;;;10.32;;
39524;SDS011;25203;50.754;6.978;2023-03-01T08:55:46;13.07;;;9.63;;
39524;SDS011;25203;50.754;6.978;2023-03-01T08:57:46;12.85;;;9.88;;
39524;SDS011;25203;50.754;6.978;2023-03-01T08:59:47;12.75;;;10.43;;
39524;SDS011;25203;50.754;6.978;2023-03-01T09:01:48;12.00;;;10.15;;
39524;SDS011;25203;50.754;6.978;2023-03-01T09:03:48;16.08;;;10.60;;
39524;SDS011;25203;50.754;6.978;2023-03-01T09:05:49;14.77;;;10.98;;
39524;SDS011;25203;50.754;6.978;2023-03-01T09:07:50;13.88;;;10.90;;
39524;SDS011;25203;50.754;6.978;2023-03-01T09:09:51;14.18;;;11.18;;
39524;SDS011;25203;50.754;6.978;2023-03-01T09:11:53;13.65;;;11.50;;
39524;SDS011;25203;50.754;6.978;2023-03-01T09:13:53;14.77;;;10.55;;
39524;SDS011;25203;50.754;6.978;2023-03-01T09:15:54;12.20;;;10.15;;
39524;SDS011;25203;50.754;6.978;2023-03-01T09:17:55;10.27;;;8.82;;
39524;SDS011;25203;50.754;6.978;2023-03-01T09:19:55;12.18;;;9.40;;
39524;SDS011;25203;50.754;6.978;2023-03-01T09:21:56;11.98;;;9.38;;
39524;SDS011;25203;50.754;6.978;2023-03-01T09:23:58;11.90;;;9.55;;
39524;SDS011;25203;50.754;6.978;2023-03-01T09:25:58;12.20;;;9.48;;
39524;SDS011;25203;50.754;6.978;2023-03-01T09:27:59;13.15;;;9.65;;
39524;SDS011;25203;50.754;6.978;2023-03-01T09:30:00;16.90;;;10.18;;
39524;SDS011;25203;50.754;6.978;2023-03-01T09:32:01;14.15;;;9.00;;
39524;SDS011;25203;50.754;6.978;2023-03-01T09:34:01;11.93;;;8.95;;
39524;SDS011;25203;50.754;6.978;2023-03-01T09:36:03;11.40;;;9.82;;
39524;SDS011;25203;50.754;6.978;2023-03-01T09:38:05;17.73;;;9.80;;
39524;SDS011;25203;50.754;6.978;2023-03-01T09:40:06;17.42;;;9.32;;
39524;SDS011;25203;50.754;6.978;2023-03-01T09:42:11;12.35;;;9.50;;
39524;SDS011;25203;50.754;6.978;2023-03-01T09:46:40;11.35;;;9.52;;
39524;SDS011;25203;50.754;6.978;2023-03-01T09:48:57;11.27;;;9.32;;
39524;SDS011;25203;50.754;6.978;2023-03-01T09:51:02;12.05;;;9.85;;
39524;SDS011;25203;50.754;6.978;2023-03-01T09:53:07;12.63;;;9.52;;
39524;SDS011;25203;50.754;6.978;2023-03-01T09:55:14;18.50;;;10.40;;
39524;SDS011;25203;50.754;6.978;2023-03-01T09:57:18;15.45;;;10.75;;
39524;SDS011;25203;50.754;6.978;2023-03-01T10:02:26;11.55;;;8.43;;
39524;SDS011;25203;50.754;6.978;2023-03-01T10:06:55;11.43;;;9.38;;
39524;SDS011;25203;50.754;6.978;2023-03-01T10:09:16;10.38;;;9.02;;
39524;SDS011;25203;50.754;6.978;2023-03-01T10:11:25;12.57;;;9.88;;
39524;SDS011;25203;50.754;6.978;2023-03-01T10:13:50;15.63;;;10.50;;
39524;SDS011;25203;50.754;6.978;2023-03-01T10:16:15;11.93;;;9.65;;
39524;SDS011;25203;50.754;6.978;2023-03-01T10:18:21;11.98;;;9.88;;
39524;SDS011;25203;50.754;6.978;2023-03-01T10:20:37;10.45;;;9.35;;
39524;SDS011;25203;50.754;6.978;2023-03-01T10:22:42;12.98;;;9.52;;
39524;SDS011;25203;50.754;6.978;2023-03-01T10:24:42;18.90;;;10.23;;
39524;SDS011;25203;50.754;6.978;2023-03-01T10:26:47;20.38;;;10.30;;
39524;SDS011;25203;50.754;6.978;2023-03-01T10:31:00;41.15;;;12.52;;
39524;SDS011;25203;50.754;6.978;2023-03-01T10:33:00;11.95;;;9.60;;
39524;SDS011;25203;50.754;6.978;2023-03-01T10:35:15;26.27;;;11.43;;
39524;SDS011;25203;50.754;6.978;2023-03-01T10:37:21;11.10;;;9.30;;
39524;SDS011;25203;50.754;6.978;2023-03-01T10:39:24;12.40;;;10.73;;
39524;SDS011;25203;50.754;6.978;2023-03-01T10:41:26;14.77;;;9.00;;
39524;SDS011;25203;50.754;6.978;2023-03-01T10:45:46;45.25;;;13.02;;
39524;SDS011;25203;50.754;6.978;2023-03-01T10:47:46;22.55;;;11.65;;
39524;SDS011;25203;50.754;6.978;2023-03-01T10:50:04;23.42;;;10.57;;
39524;SDS011;25203;50.754;6.978;2023-03-01T10:52:11;22.60;;;11.30;;
39524;SDS011;25203;50.754;6.978;2023-03-01T10:56:20;11.48;;;9.60;;
39524;SDS011;25203;50.754;6.978;2023-03-01T10:58:21;10.63;;;8.98;;
39524;SDS011;25203;50.754;6.978;2023-03-01T11:00:25;12.50;;;9.20;;
39524;SDS011;25203;50.754;6.978;2023-03-01T11:02:29;10.23;;;9.05;;
39524;SDS011;25203;50.754;6.978;2023-03-01T11:04:30;10.73;;;8.60;;
39524;SDS011;25203;50.754;6.978;2023-03-01T11:06:31;12.52;;;9.25;;
39524;SDS011;25203;50.754;6.978;2023-03-01T11:08:40;13.20;;;9.73;;
39524;SDS011;25203;50.754;6.978;2023-03-01T11:10:45;10.88;;;8.73;;
39524;SDS011;25203;50.754;6.978;2023-03-01T11:12:46;16.35;;;11.95;;
39524;SDS011;25203;50.754;6.978;2023-03-01T11:14:51;10.88;;;9.38;;
39524;SDS011;25203;50.754;6.978;2023-03-01T11:19:18;12.80;;;9.50;;
39524;SDS011;25203;50.754;6.978;2023-03-01T11:21:21;12.65;;;9.80;;
39524;SDS011;25203;50.754;6.978;2023-03-01T11:23:21;16.75;;;9.30;;
39524;SDS011;25203;50.754;6.978;2023-03-01T11:25:24;15.93;;;9.77;;
39524;SDS011;25203;50.754;6.978;2023-03-01T11:27:45;9.85;;;8.77;;
39524;SDS011;25203;50.754;6.978;2023-03-01T11:32:13;12.73;;;7.68;;
39524;SDS011;25203;50.754;6.978;2023-03-01T11:34:16;9.73;;;8.20;;
39524;SDS011;25203;50.754;6.978;2023-03-01T11:36:26;9.63;;;8.07;;
39524;SDS011;25203;50.754;6.978;2023-03-01T11:38:43;9.07;;;8.13;;
39524;SDS011;25203;50.754;6.978;2023-03-01T11:40:46;11.20;;;8.70;;
39524;SDS011;25203;50.754;6.978;2023-03-01T11:45:26;14.18;;;9.32;;
39524;SDS011;25203;50.754;6.978;2023-03-01T11:50:00;50.88;;;13.05;;
39524;SDS011;25203;50.754;6.978;2023-03-01T11:59:45;13.80;;;9.23;;
39524;SDS011;25203;50.754;6.978;2023-03-01T12:06:28;11.52;;;9.18;;
39524;SDS011;25203;50.754;6.978;2023-03-01T12:12:58;11.77;;;8.60;;
39524;SDS011;25203;50.754;6.978;2023-03-01T12:20:20;10.82;;;9.38;;
39524;SDS011;25203;50.754;6.978;2023-03-01T12:22:43;13.82;;;9.48;;
39524;SDS011;25203;50.754;6.978;2023-03-01T12:25:04;13.15;;;8.38;;
39524;SDS011;25203;50.754;6.978;2023-03-01T12:44:08;13.43;;;10.38;;
39524;SDS011;25203;50.754;6.978;2023-03-01T12:48:59;13.70;;;9.48;;
39524;SDS011;25203;50.754;6.978;2023-03-01T12:51:11;11.85;;;9.98;;
39524;SDS011;25203;50.754;6.978;2023-03-01T12:55:38;14.20;;;9.85;;
39524;SDS011;25203;50.754;6.978;2023-03-01T12:57:42;12.20;;;9.45;;
39524;SDS011;25203;50.754;6.978;2023-03-01T13:01:03;12.55;;;9.13;;
39524;SDS011;25203;50.754;6.978;2023-03-01T13:09:18;11.60;;;8.90;;
39524;SDS011;25203;50.754;6.978;2023-03-01T13:11:40;13.45;;;9.10;;
39524;SDS011;25203;50.754;6.978;2023-03-01T13:13:43;13.25;;;9.27;;
39524;SDS011;25203;50.754;6.978;2023-03-01T13:15:43;11.55;;;8.10;;
39524;SDS011;25203;50.754;6.978;2023-03-01T13:17:44;14.55;;;9.23;;
39524;SDS011;25203;50.754;6.978;2023-03-01T13:19:55;11.30;;;8.27;;
39524;SDS011;25203;50.754;6.978;2023-03-01T13:21:58;11.65;;;7.90;;
39524;SDS011;25203;50.754;6.978;2023-03-01T13:23:59;10.60;;;7.25;;
39524;SDS011;25203;50.754;6.978;2023-03-01T13:26:01;22.33;;;9.13;;
39524;SDS011;25203;50.754;6.978;2023-03-01T13:30:44;10.45;;;7.93;;